Terminal Aerodrome Forecast
Issued by NWS

Home | Current Version | Previous Version | Text Only | Print | Product List | Glossary On
Versions: 1 2 3 4 5 6 7 8 9 10 11 12 13
196
FTUS42 TJSJ 040527
TAFJBQ
TAF
TJBQ 040527Z 0406/0506 08006KT P6SM VCSH SCT030 SCT060
     FM041230 08010KT P6SM VCSH SCT030 BKN080
     FM042330 13005KT P6SM FEW025
      AMD NOT SKED TIL 041100=

USA.gov is the U.S. government's official web portal to all federal, state and local government web resources and services.